Back to Top

Language: 

My Weather Underground Personal Weather Station Historical Data with Graphs...

Delerius Weather Station Historical Data
Daily Summary for September 20, 2017 Units:  English    Metric   Both
« Previous Day
Next Day »
Daily Weekly Monthly Yearly Custom
  High: Low: Average:
Temperature: 65.7 °F 43.3 °F 53.3 °F
Dew Point: 55.8 °F 41.7 °F 49.8 °F
Humidity: 97 % 69 % 89 %
Wind Speed: 25.0 mph 0.0 mph 4.9 mph
Wind Gust: 25.0 mph - -
Wind:- - SSW
Pressure: 30.09 in 29.88 in -
Precipitation: 0.01 in    
Historical Graphs
 
 
Tabular Data for September 20, 2017
Time Temperature Dew Point Pressure Wind Wind Speed Wind Gust Humidity Rainfall Rate (Hourly) solar Conditions
00:00 45.7 °F 43.5 °F 30.09 in Calm     92 % 0.00 in 0 W/m2
00:05 45.7 °F 43.5 °F 30.09 in Calm     92 % 0.00 in 0 W/m2
00:10 45.5 °F 43.3 °F 30.09 in Calm     92 % 0.00 in 0 W/m2
00:15 45.3 °F 43.1 °F 30.09 in Calm     92 % 0.00 in 0 W/m2
00:20 45.3 °F 43.4 °F 30.08 in Calm     93 % 0.00 in 0 W/m2
00:25 45.3 °F 43.4 °F 30.08 in Calm     93 % 0.00 in 0 W/m2
00:30 45.1 °F 43.2 °F 30.08 in Calm     93 % 0.00 in 0 W/m2
00:35 45.1 °F 43.2 °F 30.08 in Calm     93 % 0.00 in 0 W/m2
00:40 45.1 °F 43.2 °F 30.08 in Calm     93 % 0.00 in 0 W/m2
00:45 45.1 °F 43.2 °F 30.08 in Calm     93 % 0.00 in 0 W/m2
00:50 45.1 °F 43.5 °F 30.08 in Calm     94 % 0.00 in 0 W/m2
00:55 45.1 °F 43.2 °F 30.08 in Calm     93 % 0.00 in 0 W/m2
01:00 45.1 °F 43.5 °F 30.08 in Calm     94 % 0.00 in 0 W/m2
01:05 45.1 °F 43.2 °F 30.08 in Calm     93 % 0.00 in 0 W/m2
01:10 45.0 °F 43.1 °F 30.08 in Calm     93 % 0.00 in 0 W/m2
01:12 45.0 °F 43.1 °F 30.08 in Calm     93 % 0.00 in 0 W/m2
01:17 44.8 °F 42.9 °F 30.08 in Calm     93 % 0.00 in 0 W/m2
01:22 44.6 °F 42.7 °F 30.08 in Calm     93 % 0.00 in 0 W/m2
01:27 44.4 °F 42.5 °F 30.08 in Calm   3.0 mph 93 % 0.00 in 0 W/m2
01:32 44.4 °F 42.8 °F 30.08 in Calm   3.0 mph 94 % 0.00 in 0 W/m2
01:37 44.4 °F 42.8 °F 30.08 in Calm   2.0 mph 94 % 0.00 in 0 W/m2
01:42 44.4 °F 42.8 °F 30.08 in Calm     94 % 0.00 in 0 W/m2
01:47 44.4 °F 42.8 °F 30.07 in Calm     94 % 0.00 in 0 W/m2
01:52 44.4 °F 42.8 °F 30.07 in Calm     94 % 0.00 in 0 W/m2
01:57 44.2 °F 42.6 °F 30.07 in Calm     94 % 0.00 in 0 W/m2
02:02 44.2 °F 42.6 °F 30.07 in Calm     94 % 0.00 in 0 W/m2
02:07 44.1 °F 42.4 °F 30.07 in Calm     94 % 0.00 in 0 W/m2
02:12 44.1 °F 42.4 °F 30.07 in Calm     94 % 0.00 in 0 W/m2
02:17 43.9 °F 42.3 °F 30.07 in Calm     94 % 0.00 in 0 W/m2
02:22 43.9 °F 42.3 °F 30.07 in Calm     94 % 0.00 in 0 W/m2
02:27 43.9 °F 42.3 °F 30.07 in Calm     94 % 0.00 in 0 W/m2
02:32 43.9 °F 42.3 °F 30.07 in Calm     94 % 0.00 in 0 W/m2
02:37 43.9 °F 42.3 °F 30.07 in Calm     94 % 0.00 in 0 W/m2
02:42 43.7 °F 42.1 °F 30.07 in Calm     94 % 0.00 in 0 W/m2
02:47 43.7 °F 42.1 °F 30.07 in Calm     94 % 0.00 in 0 W/m2
02:52 43.9 °F 42.5 °F 30.07 in Calm     95 % 0.00 in 0 W/m2
02:57 43.9 °F 42.5 °F 30.07 in Calm     95 % 0.00 in 0 W/m2
03:02 43.9 °F 42.5 °F 30.06 in Calm     95 % 0.00 in 0 W/m2
03:07 43.9 °F 42.5 °F 30.07 in Calm     95 % 0.00 in 0 W/m2
03:12 43.9 °F 42.5 °F 30.07 in Calm     95 % 0.00 in 0 W/m2
03:17 43.5 °F 41.9 °F 30.06 in Calm     94 % 0.00 in 0 W/m2
03:22 43.3 °F 41.7 °F 30.06 in Calm     94 % 0.00 in 0 W/m2
03:28 43.3 °F 42.0 °F 30.06 in Calm     95 % 0.00 in 0 W/m2
03:33 43.3 °F 42.0 °F 30.06 in Calm     95 % 0.00 in 0 W/m2
03:38 43.3 °F 42.0 °F 30.06 in Calm     95 % 0.00 in 0 W/m2
03:43 43.3 °F 42.0 °F 30.06 in Calm     95 % 0.00 in 0 W/m2
03:48 43.3 °F 42.0 °F 30.06 in Calm     95 % 0.00 in 0 W/m2
03:53 43.5 °F 42.2 °F 30.06 in Calm   4.0 mph 95 % 0.00 in 0 W/m2
03:58 43.9 °F 42.8 °F 30.06 in WSW 1.0 mph 4.0 mph 96 % 0.00 in 0 W/m2
04:03 44.1 °F 43.0 °F 30.06 in Calm   3.0 mph 96 % 0.00 in 0 W/m2
04:08 44.2 °F 43.2 °F 30.05 in Calm     96 % 0.00 in 0 W/m2
04:14 44.2 °F 42.9 °F 30.05 in Calm     95 % 0.00 in 0 W/m2
04:19 44.2 °F 42.9 °F 30.05 in Calm   3.0 mph 95 % 0.00 in 0 W/m2
04:20 44.2 °F 42.9 °F 30.05 in Calm   3.0 mph 95 % 0.00 in 0 W/m2
04:22 44.4 °F 43.1 °F 30.05 in Calm   3.0 mph 95 % 0.00 in 0 W/m2
04:25 44.4 °F 43.4 °F 30.05 in Calm   3.0 mph 96 % 0.00 in 0 W/m2
04:30 44.8 °F 43.7 °F 30.05 in Calm   2.0 mph 96 % 0.00 in 0 W/m2
04:35 44.8 °F 43.4 °F 30.04 in Calm     95 % 0.00 in 0 W/m2
04:40 45.1 °F 44.1 °F 30.04 in Calm     96 % 0.00 in 0 W/m2
04:45 45.9 °F 44.8 °F 30.04 in Calm     96 % 0.00 in 0 W/m2
04:50 46.2 °F 45.4 °F 30.04 in Calm   1.0 mph 97 % 0.00 in 0 W/m2
04:51 46.2 °F 45.1 °F 30.04 in Calm   1.0 mph 96 % 0.00 in 0 W/m2
04:56 46.2 °F 45.1 °F 30.04 in Calm     96 % 0.00 in 0 W/m2
05:01 46.0 °F 45.0 °F 30.04 in Calm     96 % 0.00 in 0 W/m2
05:06 45.9 °F 44.5 °F 30.04 in Calm     95 % 0.00 in 0 W/m2
05:11 45.7 °F 44.3 °F 30.04 in Calm   4.0 mph 95 % 0.00 in 0 W/m2
05:16 45.9 °F 44.8 °F 30.04 in Calm   4.0 mph 96 % 0.00 in 0 W/m2
05:21 46.0 °F 45.0 °F 30.04 in Calm     96 % 0.00 in 0 W/m2
05:26 46.2 °F 45.1 °F 30.03 in Calm     96 % 0.00 in 0 W/m2
05:31 46.8 °F 45.7 °F 30.04 in Calm     96 % 0.00 in 0 W/m2
05:36 46.9 °F 45.9 °F 30.03 in Calm     96 % 0.00 in 0 W/m2
05:41 47.1 °F 46.0 °F 30.03 in Calm     96 % 0.00 in 0 W/m2
05:46 47.1 °F 46.0 °F 30.03 in Calm     96 % 0.00 in 0 W/m2
05:51 47.5 °F 46.4 °F 30.03 in Calm     96 % 0.00 in 0 W/m2
05:56 47.7 °F 46.6 °F 30.03 in Calm     96 % 0.00 in 0 W/m2
06:01 47.8 °F 46.8 °F 30.03 in Calm     96 % 0.00 in 0 W/m2
06:06 48.2 °F 47.1 °F 30.03 in Calm     96 % 0.00 in 0 W/m2
06:11 48.4 °F 47.3 °F 30.03 in Calm     96 % 0.00 in 0 W/m2
06:16 48.0 °F 46.9 °F 30.03 in Calm     96 % 0.00 in 0 W/m2
06:21 48.0 °F 46.9 °F 30.03 in Calm     96 % 0.00 in 0 W/m2
06:26 48.4 °F 47.3 °F 30.03 in Calm     96 % 0.00 in 0 W/m2
06:31 48.6 °F 47.5 °F 30.03 in Calm     96 % 0.00 in 0 W/m2
06:36 48.9 °F 48.1 °F 30.03 in Calm     97 % 0.00 in 0 W/m2
06:41 49.3 °F 48.2 °F 30.03 in Calm     96 % 0.00 in 0 W/m2
06:46 49.3 °F 48.2 °F 30.03 in Calm     96 % 0.00 in 0 W/m2
06:51 49.3 °F 48.2 °F 30.02 in Calm   2.0 mph 96 % 0.00 in 5 W/m2
06:56 49.5 °F 48.4 °F 30.02 in Calm   2.0 mph 96 % 0.00 in 5 W/m2
07:01 49.6 °F 48.5 °F 30.02 in WSW 1.0 mph 2.0 mph 96 % 0.00 in 0 W/m2
07:06 49.8 °F 48.7 °F 30.02 in WSW 1.0 mph 4.0 mph 96 % 0.00 in 0 W/m2
07:11 50.4 °F 49.5 °F 30.02 in WSW 1.0 mph 4.0 mph 97 % 0.00 in 5 W/m2
07:16 50.5 °F 49.4 °F 30.02 in WSW 1.0 mph 4.0 mph 96 % 0.00 in 5 W/m2
07:21 50.7 °F 49.6 °F 30.02 in WSW 1.0 mph 4.0 mph 96 % 0.00 in 5 W/m2
07:22 50.7 °F 49.6 °F 30.02 in WSW 1.0 mph 4.0 mph 96 % 0.00 in 5 W/m2
07:27 51.1 °F 50.0 °F 30.02 in Calm   3.0 mph 96 % 0.00 in 9 W/m2
07:32 51.1 °F 50.0 °F 30.01 in Calm   2.0 mph 96 % 0.00 in 14 W/m2
07:37 51.3 °F 50.2 °F 30.01 in Calm   4.0 mph 96 % 0.00 in 16 W/m2
07:42 51.4 °F 50.3 °F 30.01 in Calm   4.0 mph 96 % 0.00 in 19 W/m2
07:47 51.6 °F 50.5 °F 30.02 in Calm   1.0 mph 96 % 0.00 in 21 W/m2
07:52 51.8 °F 50.7 °F 30.01 in SW 1.0 mph 5.0 mph 96 % 0.00 in 19 W/m2
07:57 52.0 °F 50.9 °F 30.01 in SW 1.0 mph 5.0 mph 96 % 0.00 in 26 W/m2
08:02 52.2 °F 51.1 °F 30.01 in Calm   2.0 mph 96 % 0.00 in 26 W/m2
08:07 52.2 °F 51.1 °F 30.01 in Calm     96 % 0.00 in 25 W/m2
08:12 52.3 °F 51.2 °F 30.01 in Calm     96 % 0.00 in 25 W/m2
08:17 52.5 °F 51.4 °F 30.01 in Calm   2.0 mph 96 % 0.00 in 33 W/m2
08:22 52.7 °F 51.6 °F 30.01 in SSW 1.0 mph 5.0 mph 96 % 0.00 in 54 W/m2
08:27 52.9 °F 51.8 °F 30.01 in SSW 2.0 mph 6.0 mph 96 % 0.00 in 76 W/m2
08:32 53.2 °F 52.1 °F 30.01 in SW 4.0 mph 8.0 mph 96 % 0.00 in 93 W/m2
08:37 53.6 °F 52.5 °F 30.01 in SW 6.0 mph 10.0 mph 96 % 0.00 in 86 W/m2
08:38 53.6 °F 52.5 °F 30.01 in SW 6.0 mph 10.0 mph 96 % 0.00 in 86 W/m2
08:43 54.0 °F 52.6 °F 30.01 in SW 5.0 mph 9.0 mph 95 % 0.00 in 118 W/m2
08:48 54.1 °F 52.7 °F 30.01 in SW 4.0 mph 8.0 mph 95 % 0.00 in 118 W/m2
08:53 54.3 °F 52.9 °F 30.01 in SW 3.0 mph 8.0 mph 95 % 0.00 in 144 W/m2
08:58 54.7 °F 53.0 °F 30.01 in WSW 4.0 mph 8.0 mph 94 % 0.00 in 162 W/m2
09:03 55.2 °F 53.5 °F 30.01 in WSW 5.0 mph 8.0 mph 94 % 0.00 in 221 W/m2
09:08 55.8 °F 54.1 °F 30.00 in SW 4.0 mph 7.0 mph 94 % 0.00 in 181 W/m2
09:09 55.8 °F 54.1 °F 30.00 in SW 4.0 mph 8.0 mph 94 % 0.00 in 169 W/m2
09:14 56.3 °F 54.0 °F 30.00 in SSW 4.0 mph 10.0 mph 92 % 0.00 in 151 W/m2
09:19 56.8 °F 54.2 °F 30.00 in SSW 6.0 mph 10.0 mph 91 % 0.00 in 359 W/m2
09:45 58.3 °F 53.8 °F 30.00 in SSW 10.0 mph 10.0 mph 85 % 0.00 in 370 W/m2
10:00 59.3 °F 53.8 °F 30.00 in SW 13.0 mph 13.0 mph 82 % 0.00 in 444 W/m2
10:15 60.3 °F 54.8 °F 30.00 in SW 10.0 mph 10.0 mph 82 % 0.00 in 364 W/m2
10:30 61.0 °F 54.8 °F 29.99 in SW 13.0 mph 13.0 mph 80 % 0.00 in 369 W/m2
10:45 61.3 °F 54.7 °F 29.99 in SW 13.0 mph 13.0 mph 79 % 0.00 in 436 W/m2
11:00 61.8 °F 55.2 °F 29.99 in SW 15.0 mph 15.0 mph 79 % 0.00 in 446 W/m2
11:15 61.6 °F 55.0 °F 29.98 in SSW 15.0 mph 15.0 mph 79 % 0.00 in 562 W/m2
11:30 62.8 °F 55.5 °F 29.98 in SW 18.0 mph 18.0 mph 77 % 0.00 in 670 W/m2
11:45 63.8 °F 55.7 °F 29.98 in SW 16.0 mph 16.0 mph 75 % 0.00 in 398 W/m2
12:00 63.7 °F 55.6 °F 29.97 in SW 16.0 mph 16.0 mph 75 % 0.00 in 312 W/m2
12:15 63.8 °F 55.4 °F 29.97 in SW 19.0 mph 19.0 mph 74 % 0.00 in 388 W/m2
12:30 64.1 °F 55.6 °F 29.96 in SW 18.0 mph 18.0 mph 74 % 0.00 in 315 W/m2
12:45 63.9 °F 54.7 °F 29.96 in SW 15.0 mph 15.0 mph 72 % 0.00 in 335 W/m2
13:00 64.0 °F 55.2 °F 29.96 in SW 15.0 mph 15.0 mph 73 % 0.00 in 307 W/m2
13:15 64.3 °F 54.7 °F 29.95 in SW 19.0 mph 19.0 mph 71 % 0.00 in 354 W/m2
13:30 64.5 °F 55.3 °F 29.95 in SW 18.0 mph 18.0 mph 72 % 0.00 in 417 W/m2
13:45 65.3 °F 54.9 °F 29.95 in SSW 20.0 mph 20.0 mph 69 % 0.00 in 640 W/m2
14:00 65.7 °F 55.2 °F 29.95 in SW 23.0 mph 23.0 mph 69 % 0.00 in 369 W/m2
14:15 65.1 °F 54.7 °F 29.95 in SW 25.0 mph 25.0 mph 69 % 0.00 in 428 W/m2
14:30 64.7 °F 55.1 °F 29.95 in SW 20.0 mph 20.0 mph 71 % 0.00 in 233 W/m2
14:45 64.0 °F 54.4 °F 29.95 in SW 20.0 mph 20.0 mph 71 % 0.00 in 159 W/m2
15:00 63.9 °F 54.7 °F 29.95 in SSW 15.0 mph 15.0 mph 72 % 0.00 in 242 W/m2
15:15 64.1 °F 54.9 °F 29.95 in SW 16.0 mph 16.0 mph 72 % 0.00 in 240 W/m2
15:30 63.9 °F 54.7 °F 29.94 in SSW 16.0 mph 16.0 mph 72 % 0.00 in 140 W/m2
15:45 63.5 °F 55.1 °F 29.93 in SSW 18.0 mph 18.0 mph 74 % 0.00 in 143 W/m2
16:00 63.5 °F 54.7 °F 29.93 in SSW 19.0 mph 19.0 mph 73 % 0.00 in 154 W/m2
16:15 63.6 °F 54.8 °F 29.92 in SSW 14.0 mph 14.0 mph 73 % 0.00 in 131 W/m2
16:30 63.6 °F 55.2 °F 29.92 in South 10.0 mph 10.0 mph 74 % 0.00 in 101 W/m2
16:45 63.8 °F 55.0 °F 29.91 in SSW 13.0 mph 13.0 mph 73 % 0.00 in 140 W/m2
17:00 64.0 °F 55.2 °F 29.91 in SSW 14.0 mph 14.0 mph 73 % 0.00 in 106 W/m2
17:15 64.1 °F 55.3 °F 29.92 in SW 16.0 mph 16.0 mph 73 % 0.00 in 119 W/m2
17:30 64.2 °F 55.4 °F 29.91 in SW 16.0 mph 16.0 mph 73 % 0.00 in 75 W/m2
17:45 63.6 °F 55.2 °F 29.91 in SSW 16.0 mph 16.0 mph 74 % 0.00 in 43 W/m2
18:00 63.2 °F 54.8 °F 29.91 in SSW 14.0 mph 14.0 mph 74 % 0.00 in 24 W/m2
18:15 62.8 °F 54.8 °F 29.90 in SSW 16.0 mph 16.0 mph 75 % 0.00 in 18 W/m2
18:30 62.6 °F 54.6 °F 29.91 in SSW 15.0 mph 15.0 mph 75 % 0.00 in 16 W/m2
18:45 62.5 °F 54.8 °F 29.90 in South 15.0 mph 15.0 mph 76 % 0.00 in 11 W/m2
19:00 62.3 °F 55.0 °F 29.90 in South 16.0 mph 16.0 mph 77 % 0.00 in 6 W/m2
19:15 62.1 °F 54.8 °F 29.90 in SSW 13.0 mph 13.0 mph 77 % 0.00 in 0 W/m2
19:30 62.1 °F 54.8 °F 29.90 in SSW 12.0 mph 12.0 mph 77 % 0.00 in 0 W/m2
19:45 61.9 °F 54.6 °F 29.90 in SSW 13.0 mph 13.0 mph 77 % 0.00 in 0 W/m2
20:08 61.7 °F 54.8 °F 29.90 in SSW 13.0 mph 13.0 mph 78 % 0.00 in 0 W/m2
20:13 61.7 °F 54.8 °F 29.90 in South 8.0 mph 14.0 mph 78 % 0.00 in 0 W/m2
20:18 61.7 °F 54.8 °F 29.90 in South 8.0 mph 16.0 mph 78 % 0.00 in 0 W/m2
20:27 61.5 °F 54.6 °F 29.89 in SSW 11.0 mph 13.0 mph 78 % 0.00 in 0 W/m2
20:32 61.5 °F 54.6 °F 29.89 in South 9.0 mph 13.0 mph 78 % 0.00 in 0 W/m2
20:37 61.5 °F 54.6 °F 29.89 in South 9.0 mph 13.0 mph 78 % 0.00 in 0 W/m2
20:42 61.3 °F 54.4 °F 29.89 in South 8.0 mph 13.0 mph 78 % 0.00 in 0 W/m2
20:47 61.3 °F 54.8 °F 29.89 in South 8.0 mph 14.0 mph 79 % 0.00 in 0 W/m2
20:52 61.3 °F 54.8 °F 29.89 in South 9.0 mph 14.0 mph 79 % 0.00 in 0 W/m2
20:57 61.2 °F 54.6 °F 29.89 in SSW 8.0 mph 14.0 mph 79 % 0.00 in 0 W/m2
21:02 61.2 °F 54.6 °F 29.89 in SSW 8.0 mph 14.0 mph 79 % 0.00 in 0 W/m2
21:07 61.2 °F 54.9 °F 29.89 in South 7.0 mph 13.0 mph 80 % 0.00 in 0 W/m2
21:12 61.2 °F 54.9 °F 29.89 in South 7.0 mph 12.0 mph 80 % 0.00 in 0 W/m2
21:17 61.0 °F 54.8 °F 29.89 in South 6.0 mph 10.0 mph 80 % 0.00 in 0 W/m2
21:22 61.0 °F 55.1 °F 29.89 in South 7.0 mph 15.0 mph 81 % 0.00 in 0 W/m2
21:27 61.0 °F 55.1 °F 29.89 in South 6.0 mph 15.0 mph 81 % 0.00 in 0 W/m2
21:32 61.0 °F 55.1 °F 29.89 in South 6.0 mph 12.0 mph 81 % 0.00 in 0 W/m2
21:37 61.0 °F 55.4 °F 29.89 in South 8.0 mph 15.0 mph 82 % 0.00 in 0 W/m2
21:42 60.8 °F 55.3 °F 29.89 in SSW 9.0 mph 18.0 mph 82 % 0.00 in 0 W/m2
21:47 60.6 °F 55.1 °F 29.89 in SSW 9.0 mph 18.0 mph 82 % 0.00 in 0 W/m2
21:52 60.6 °F 55.1 °F 29.89 in SSW 8.0 mph 14.0 mph 82 % 0.00 in 0 W/m2
21:57 60.6 °F 55.4 °F 29.89 in SSW 8.0 mph 15.0 mph 83 % 0.00 in 0 W/m2
22:02 60.4 °F 55.6 °F 29.89 in SSW 9.0 mph 18.0 mph 84 % 0.00 in 0 W/m2
22:07 60.3 °F 55.7 °F 29.88 in SSW 9.0 mph 18.0 mph 85 % 0.00 in 0 W/m2
22:12 59.9 °F 55.7 °F 29.89 in SSW 8.0 mph 14.0 mph 86 % 0.00 in 0 W/m2
22:17 59.5 °F 55.7 °F 29.89 in SSW 7.0 mph 13.0 mph 87 % 0.01 in 0 W/m2
22:23 59.4 °F 55.8 °F 29.88 in South 6.0 mph 11.0 mph 88 % 0.01 in 0 W/m2
22:28 59.2 °F 55.6 °F 29.88 in SSW 4.0 mph 9.0 mph 88 % 0.01 in 0 W/m2
22:33 59.2 °F 55.6 °F 29.88 in South 3.0 mph 11.0 mph 88 % 0.01 in 0 W/m2
22:38 59.0 °F 55.8 °F 29.88 in SSE 4.0 mph 11.0 mph 89 % 0.01 in 0 W/m2
22:43 58.8 °F 55.6 °F 29.88 in SSE 4.0 mph 10.0 mph 89 % 0.01 in 0 W/m2
22:48 58.8 °F 55.6 °F 29.88 in SSE 5.0 mph 10.0 mph 89 % 0.01 in 0 W/m2
22:53 58.8 °F 55.6 °F 29.88 in SSE 6.0 mph 10.0 mph 89 % 0.01 in 0 W/m2
22:58 58.6 °F 55.4 °F 29.88 in SSE 5.0 mph 10.0 mph 89 % 0.01 in 0 W/m2
23:03 58.6 °F 55.4 °F 29.89 in South 4.0 mph 10.0 mph 89 % 0.01 in 0 W/m2
23:08 58.6 °F 55.4 °F 29.88 in South 5.0 mph 10.0 mph 89 % 0.01 in 0 W/m2
23:13 58.6 °F 55.4 °F 29.88 in SSE 4.0 mph 9.0 mph 89 % 0.00 in 0 W/m2
23:18 58.5 °F 55.2 °F 29.89 in SE 3.0 mph 7.0 mph 89 % 0.00 in 0 W/m2
23:23 58.5 °F 55.2 °F 29.88 in SE 3.0 mph 10.0 mph 89 % 0.00 in 0 W/m2
23:28 58.5 °F 55.2 °F 29.89 in SE 4.0 mph 10.0 mph 89 % 0.00 in 0 W/m2
23:33 58.5 °F 55.2 °F 29.89 in SSE 3.0 mph 10.0 mph 89 % 0.00 in 0 W/m2
23:38 58.5 °F 55.2 °F 29.88 in South 3.0 mph 7.0 mph 89 % 0.00 in 0 W/m2
23:43 58.5 °F 55.2 °F 29.89 in SE 4.0 mph 7.0 mph 89 % 0.00 in 0 W/m2
23:48 58.5 °F 55.2 °F 29.88 in SE 2.0 mph 7.0 mph 89 % 0.00 in 0 W/m2
23:53 58.5 °F 55.2 °F 29.89 in ESE 2.0 mph 6.0 mph 89 % 0.00 in 0 W/m2
23:58 58.3 °F 55.1 °F 29.88 in SSE 3.0 mph 7.0 mph 89 % 0.00 in 0 W/m2
Delerius-Weather
Compliments of Weather Underground - 1.75 mb

Data updates at regular intervals.